sensor_id;sensor_type;location;lat;lon;timestamp;pressure;altitude;pressure_sealevel;temperature;humidity
77321;BME280;66382;52.252;8.780;2023-11-18T00:01:41;101472.91;;;5.94;71.07
77321;BME280;66382;52.252;8.780;2023-11-18T00:04:06;101476.13;;;5.97;71.18
77321;BME280;66382;52.252;8.780;2023-11-18T00:06:32;101486.25;;;6.03;71.07
77321;BME280;66382;52.252;8.780;2023-11-18T00:08:57;101469.97;;;5.97;71.18
77321;BME280;66382;52.252;8.780;2023-11-18T00:11:23;101493.66;;;6.10;71.43
77321;BME280;66382;52.252;8.780;2023-11-18T00:13:48;101487.34;;;6.11;71.11
77321;BME280;66382;52.252;8.780;2023-11-18T00:16:14;101491.00;;;6.10;71.34
77321;BME280;66382;52.252;8.780;2023-11-18T00:18:41;101488.06;;;6.13;71.32
77321;BME280;66382;52.252;8.780;2023-11-18T00:21:07;101480.78;;;6.15;71.41
77321;BME280;66382;52.252;8.780;2023-11-18T00:23:32;101481.06;;;6.12;71.28
77321;BME280;66382;52.252;8.780;2023-11-18T00:25:58;101482.34;;;6.17;71.11
77321;BME280;66382;52.252;8.780;2023-11-18T00:28:23;101488.94;;;6.23;71.74
77321;BME280;66382;52.252;8.780;2023-11-18T00:30:49;101478.03;;;6.26;71.23
77321;BME280;66382;52.252;8.780;2023-11-18T00:33:14;101481.41;;;6.28;71.12
77321;BME280;66382;52.252;8.780;2023-11-18T00:35:41;101474.09;;;6.30;71.39
77321;BME280;66382;52.252;8.780;2023-11-18T00:38:06;101467.38;;;6.26;71.00
77321;BME280;66382;52.252;8.780;2023-11-18T00:40:32;101468.78;;;6.30;71.17
77321;BME280;66382;52.252;8.780;2023-11-18T00:42:57;101478.59;;;6.30;71.00
77321;BME280;66382;52.252;8.780;2023-11-18T00:45:23;101464.44;;;6.29;71.12
77321;BME280;66382;52.252;8.780;2023-11-18T00:47:49;101468.78;;;6.30;71.11
77321;BME280;66382;52.252;8.780;2023-11-18T00:50:14;101466.28;;;6.29;71.31
77321;BME280;66382;52.252;8.780;2023-11-18T00:52:41;101472.56;;;6.28;71.35
77321;BME280;66382;52.252;8.780;2023-11-18T00:55:07;101464.56;;;6.28;71.15
77321;BME280;66382;52.252;8.780;2023-11-18T00:57:33;101476.09;;;6.28;71.24
77321;BME280;66382;52.252;8.780;2023-11-18T00:59:58;101482.25;;;6.29;70.79
77321;BME280;66382;52.252;8.780;2023-11-18T01:02:24;101485.75;;;6.29;70.87
77321;BME280;66382;52.252;8.780;2023-11-18T01:04:49;101483.38;;;6.26;71.13
77321;BME280;66382;52.252;8.780;2023-11-18T01:07:15;101487.13;;;6.23;71.01
77321;BME280;66382;52.252;8.780;2023-11-18T01:09:41;101487.13;;;6.23;71.20
77321;BME280;66382;52.252;8.780;2023-11-18T01:12:07;101491.59;;;6.23;71.07
77321;BME280;66382;52.252;8.780;2023-11-18T01:14:33;101484.47;;;6.23;71.22
77321;BME280;66382;52.252;8.780;2023-11-18T01:16:58;101491.59;;;6.23;71.17
77321;BME280;66382;52.252;8.780;2023-11-18T01:19:24;101499.59;;;6.23;71.17
77321;BME280;66382;52.252;8.780;2023-11-18T01:21:49;101501.41;;;6.22;71.07
77321;BME280;66382;52.252;8.780;2023-11-18T01:24:15;101507.84;;;6.20;70.83
77321;BME280;66382;52.252;8.780;2023-11-18T01:26:42;101507.03;;;6.19;71.23
77321;BME280;66382;52.252;8.780;2023-11-18T01:29:07;101517.66;;;6.19;71.09
77321;BME280;66382;52.252;8.780;2023-11-18T01:31:32;101522.28;;;6.17;71.29
77321;BME280;66382;52.252;8.780;2023-11-18T01:33:58;101524.38;;;6.14;71.16
77321;BME280;66382;52.252;8.780;2023-11-18T01:36:23;101524.78;;;6.09;70.77
77321;BME280;66382;52.252;8.780;2023-11-18T01:38:49;101532.88;;;6.08;70.38
77321;BME280;66382;52.252;8.780;2023-11-18T01:41:14;101535.94;;;6.03;71.10
77321;BME280;66382;52.252;8.780;2023-11-18T01:43:43;101528.38;;;5.98;70.89
77321;BME280;66382;52.252;8.780;2023-11-18T01:46:10;101529.63;;;5.94;70.88
77321;BME280;66382;52.252;8.780;2023-11-18T01:48:37;101527.44;;;5.88;70.93
77321;BME280;66382;52.252;8.780;2023-11-18T01:51:05;101532.31;;;5.83;70.84
77321;BME280;66382;52.252;8.780;2023-11-18T01:53:31;101526.03;;;5.84;71.09
77321;BME280;66382;52.252;8.780;2023-11-18T01:55:57;101529.66;;;5.83;70.94
77321;BME280;66382;52.252;8.780;2023-11-18T01:58:22;101532.59;;;5.80;70.91
77321;BME280;66382;52.252;8.780;2023-11-18T02:00:49;101528.25;;;5.79;71.06
77321;BME280;66382;52.252;8.780;2023-11-18T02:03:15;101531.88;;;5.78;71.00
77321;BME280;66382;52.252;8.780;2023-11-18T02:05:40;101524.28;;;5.73;70.74
77321;BME280;66382;52.252;8.780;2023-11-18T02:08:06;101543.63;;;5.75;70.50
77321;BME280;66382;52.252;8.780;2023-11-18T02:10:31;101537.03;;;5.70;71.09
77321;BME280;66382;52.252;8.780;2023-11-18T02:13:06;101540.41;;;5.72;70.93
77321;BME280;66382;52.252;8.780;2023-11-18T02:15:33;101532.41;;;5.72;70.91
77321;BME280;66382;52.252;8.780;2023-11-18T02:18:02;101531.59;;;5.71;70.66
77321;BME280;66382;52.252;8.780;2023-11-18T02:20:28;101534.09;;;5.73;71.14
77321;BME280;66382;52.252;8.780;2023-11-18T02:22:55;101529.50;;;5.75;71.34
77321;BME280;66382;52.252;8.780;2023-11-18T02:25:24;101521.38;;;5.76;71.20
77321;BME280;66382;52.252;8.780;2023-11-18T02:27:51;101524.88;;;5.77;71.15
77321;BME280;66382;52.252;8.780;2023-11-18T02:30:16;101523.44;;;5.73;71.08
77321;BME280;66382;52.252;8.780;2023-11-18T02:32:45;101530.06;;;5.78;71.26
77321;BME280;66382;52.252;8.780;2023-11-18T02:35:17;101524.88;;;5.77;71.46
77321;BME280;66382;52.252;8.780;2023-11-18T02:37:47;101525.72;;;5.77;71.16
77321;BME280;66382;52.252;8.780;2023-11-18T02:40:18;101525.59;;;5.79;71.18
77321;BME280;66382;52.252;8.780;2023-11-18T02:42:45;101520.41;;;5.77;71.31
77321;BME280;66382;52.252;8.780;2023-11-18T02:45:15;101517.75;;;5.77;71.35
77321;BME280;66382;52.252;8.780;2023-11-18T02:47:41;101520.28;;;5.79;71.64
77321;BME280;66382;52.252;8.780;2023-11-18T02:50:09;101520.84;;;5.82;71.51
77321;BME280;66382;52.252;8.780;2023-11-18T02:52:34;101521.69;;;5.83;71.90
77321;BME280;66382;52.252;8.780;2023-11-18T02:55:00;101519.63;;;5.87;71.52
77321;BME280;66382;52.252;8.780;2023-11-18T02:57:25;101520.44;;;5.87;71.71
77321;BME280;66382;52.252;8.780;2023-11-18T02:59:51;101520.31;;;5.89;72.02
77321;BME280;66382;52.252;8.780;2023-11-18T03:02:17;101512.19;;;5.90;71.52
77321;BME280;66382;52.252;8.780;2023-11-18T03:04:43;101513.19;;;5.89;71.73
77321;BME280;66382;52.252;8.780;2023-11-18T03:07:08;101510.38;;;5.91;71.27
77321;BME280;66382;52.252;8.780;2023-11-18T03:09:34;101509.81;;;5.87;71.78
77321;BME280;66382;52.252;8.780;2023-11-18T03:11:59;101505.91;;;5.91;71.83
77321;BME280;66382;52.252;8.780;2023-11-18T03:14:25;101510.00;;;5.95;71.51
77321;BME280;66382;52.252;8.780;2023-11-18T03:16:50;101507.94;;;5.99;71.50
77321;BME280;66382;52.252;8.780;2023-11-18T03:19:17;101508.06;;;5.97;72.10
77321;BME280;66382;52.252;8.780;2023-11-18T03:21:42;101515.75;;;6.00;71.77
77321;BME280;66382;52.252;8.780;2023-11-18T03:24:08;101515.22;;;5.97;71.11
77321;BME280;66382;52.252;8.780;2023-11-18T03:26:34;101511.81;;;5.95;71.69
77321;BME280;66382;52.252;8.780;2023-11-18T03:28:59;101518.19;;;6.03;71.63
77321;BME280;66382;52.252;8.780;2023-11-18T03:31:25;101517.31;;;6.03;71.86
77321;BME280;66382;52.252;8.780;2023-11-18T03:33:50;101517.59;;;6.00;71.51
77321;BME280;66382;52.252;8.780;2023-11-18T03:36:17;101516.47;;;6.02;71.58
77321;BME280;66382;52.252;8.780;2023-11-18T03:38:42;101519.84;;;6.05;71.39
77321;BME280;66382;52.252;8.780;2023-11-18T03:41:08;101509.34;;;6.03;72.14
77321;BME280;66382;52.252;8.780;2023-11-18T03:43:33;101507.66;;;6.02;72.10
77321;BME280;66382;52.252;8.780;2023-11-18T03:45:59;101501.50;;;6.01;71.97
77321;BME280;66382;52.252;8.780;2023-11-18T03:48:24;101504.16;;;6.01;71.87
77321;BME280;66382;52.252;8.780;2023-11-18T03:50:50;101505.97;;;6.01;71.92
77321;BME280;66382;52.252;8.780;2023-11-18T03:53:16;101497.41;;;5.97;72.01
77321;BME280;66382;52.252;8.780;2023-11-18T03:55:42;101490.13;;;5.99;71.94
77321;BME280;66382;52.252;8.780;2023-11-18T03:58:07;101485.31;;;5.93;71.76
77321;BME280;66382;52.252;8.780;2023-11-18T04:00:33;101487.13;;;5.93;71.58
77321;BME280;66382;52.252;8.780;2023-11-18T04:02:58;101486.69;;;5.88;71.75
77321;BME280;66382;52.252;8.780;2023-11-18T04:05:24;101497.78;;;5.93;71.94
77321;BME280;66382;52.252;8.780;2023-11-18T04:07:49;101501.19;;;5.95;72.12
77321;BME280;66382;52.252;8.780;2023-11-18T04:10:16;101500.34;;;5.94;72.04
77321;BME280;66382;52.252;8.780;2023-11-18T04:12:42;101499.50;;;5.94;72.24
77321;BME280;66382;52.252;8.780;2023-11-18T04:15:08;101497.22;;;5.89;71.86
77321;BME280;66382;52.252;8.780;2023-11-18T04:17:33;101503.00;;;5.94;72.25
77321;BME280;66382;52.252;8.780;2023-11-18T04:19:59;101496.56;;;5.97;72.19
77321;BME280;66382;52.252;8.780;2023-11-18T04:22:24;101495.75;;;5.96;72.31
77321;BME280;66382;52.252;8.780;2023-11-18T04:24:50;101487.47;;;5.99;72.38
77321;BME280;66382;52.252;8.780;2023-11-18T04:27:16;101494.22;;;6.03;72.62
77321;BME280;66382;52.252;8.780;2023-11-18T04:29:42;101490.44;;;6.06;71.96
77321;BME280;66382;52.252;8.780;2023-11-18T04:32:07;101489.75;;;6.04;72.38
77321;BME280;66382;52.252;8.780;2023-11-18T04:34:35;101482.72;;;6.03;72.48
77321;BME280;66382;52.252;8.780;2023-11-18T04:37:00;101485.25;;;6.05;72.07
77321;BME280;66382;52.252;8.780;2023-11-18T04:39:26;101475.44;;;6.05;72.09
77321;BME280;66382;52.252;8.780;2023-11-18T04:41:51;101484.97;;;6.08;72.28
77321;BME280;66382;52.252;8.780;2023-11-18T04:44:18;101486.91;;;6.06;71.96
77321;BME280;66382;52.252;8.780;2023-11-18T04:46:43;101454.47;;;5.91;71.86
77321;BME280;66382;52.252;8.780;2023-11-18T04:49:09;101475.72;;;6.02;72.44
77321;BME280;66382;52.252;8.780;2023-11-18T04:51:34;101478.25;;;6.03;71.59
77321;BME280;66382;52.252;8.780;2023-11-18T04:54:00;101468.72;;;6.01;71.53
77321;BME280;66382;52.252;8.780;2023-11-18T04:56:25;101458.31;;;5.98;71.61
77321;BME280;66382;52.252;8.780;2023-11-18T04:58:51;101447.13;;;5.94;72.03
77321;BME280;66382;52.252;8.780;2023-11-18T05:01:17;101447.34;;;5.91;71.73
77321;BME280;66382;52.252;8.780;2023-11-18T05:03:43;101443.41;;;5.86;71.72
77321;BME280;66382;52.252;8.780;2023-11-18T05:06:08;101438.34;;;5.82;71.74
77321;BME280;66382;52.252;8.780;2023-11-18T05:08:34;101443.66;;;5.82;71.97
77321;BME280;66382;52.252;8.780;2023-11-18T05:10:59;101432.91;;;5.84;72.08
77321;BME280;66382;52.252;8.780;2023-11-18T05:13:25;101425.16;;;5.81;71.78
77321;BME280;66382;52.252;8.780;2023-11-18T05:15:50;101429.09;;;5.77;71.41
77321;BME280;66382;52.252;8.780;2023-11-18T05:18:17;101427.34;;;5.66;71.57
77321;BME280;66382;52.252;8.780;2023-11-18T05:20:43;101432.50;;;5.58;71.70
77321;BME280;66382;52.252;8.780;2023-11-18T05:23:08;101423.97;;;5.54;71.94
77321;BME280;66382;52.252;8.780;2023-11-18T05:25:34;101425.06;;;5.52;71.79
77321;BME280;66382;52.252;8.780;2023-11-18T05:27:59;101424.22;;;5.51;71.38
77321;BME280;66382;52.252;8.780;2023-11-18T05:30:25;101406.69;;;5.49;71.63
77321;BME280;66382;52.252;8.780;2023-11-18T05:32:50;101411.19;;;5.48;71.49
77321;BME280;66382;52.252;8.780;2023-11-18T05:35:17;101401.66;;;5.46;71.40
77321;BME280;66382;52.252;8.780;2023-11-18T05:37:42;101402.91;;;5.42;71.56
77321;BME280;66382;52.252;8.780;2023-11-18T05:40:08;101398.28;;;5.44;72.16
77321;BME280;66382;52.252;8.780;2023-11-18T05:42:34;101404.72;;;5.41;71.77
77321;BME280;66382;52.252;8.780;2023-11-18T05:45:00;101401.22;;;5.41;71.95
77321;BME280;66382;52.252;8.780;2023-11-18T05:47:25;101403.16;;;5.38;72.02
77321;BME280;66382;52.252;8.780;2023-11-18T05:49:51;101406.22;;;5.34;71.82
77321;BME280;66382;52.252;8.780;2023-11-18T05:52:18;101414.91;;;5.36;72.14
77321;BME280;66382;52.252;8.780;2023-11-18T05:54:44;101418.28;;;5.38;72.19
77321;BME280;66382;52.252;8.780;2023-11-18T05:57:09;101416.84;;;5.34;72.28
77321;BME280;66382;52.252;8.780;2023-11-18T05:59:35;101410.56;;;5.35;71.99
77321;BME280;66382;52.252;8.780;2023-11-18T06:02:00;101414.91;;;5.36;72.26
77321;BME280;66382;52.252;8.780;2023-11-18T06:04:25;101415.72;;;5.36;71.77
77321;BME280;66382;52.252;8.780;2023-11-18T06:06:51;101410.56;;;5.35;71.77
77321;BME280;66382;52.252;8.780;2023-11-18T06:09:18;101405.66;;;5.30;71.54
77321;BME280;66382;52.252;8.780;2023-11-18T06:11:43;101422.44;;;5.31;71.75
77321;BME280;66382;52.252;8.780;2023-11-18T06:14:09;101415.44;;;5.30;71.85
77321;BME280;66382;52.252;8.780;2023-11-18T06:16:34;101416.28;;;5.30;71.74
77321;BME280;66382;52.252;8.780;2023-11-18T06:18:59;101411.06;;;5.29;71.70
77321;BME280;66382;52.252;8.780;2023-11-18T06:21:26;101413.88;;;5.27;71.63
77321;BME280;66382;52.252;8.780;2023-11-18T06:23:52;101409.09;;;5.21;71.86
77321;BME280;66382;52.252;8.780;2023-11-18T06:26:19;101411.91;;;5.20;72.10
77321;BME280;66382;52.252;8.780;2023-11-18T06:28:45;101406.56;;;5.20;71.65
77321;BME280;66382;52.252;8.780;2023-11-18T06:31:11;101392.97;;;5.13;71.81
77321;BME280;66382;52.252;8.780;2023-11-18T06:33:38;101397.44;;;5.12;72.03
77321;BME280;66382;52.252;8.780;2023-11-18T06:36:05;101404.69;;;5.10;71.73
77321;BME280;66382;52.252;8.780;2023-11-18T06:38:30;101403.41;;;5.05;72.19
77321;BME280;66382;52.252;8.780;2023-11-18T06:40:56;101409.56;;;5.05;72.46
77321;BME280;66382;52.252;8.780;2023-11-18T06:43:23;101426.91;;;5.09;72.18
77321;BME280;66382;52.252;8.780;2023-11-18T06:45:48;101412.22;;;5.05;72.37
77321;BME280;66382;52.252;8.780;2023-11-18T06:48:14;101417.25;;;5.08;72.42
77321;BME280;66382;52.252;8.780;2023-11-18T06:50:39;101413.94;;;5.16;72.22
77321;BME280;66382;52.252;8.780;2023-11-18T06:53:05;101429.91;;;5.16;72.36
77321;BME280;66382;52.252;8.780;2023-11-18T06:55:30;101430.75;;;5.16;72.59
77321;BME280;66382;52.252;8.780;2023-11-18T06:57:56;101417.22;;;5.20;72.40
77321;BME280;66382;52.252;8.780;2023-11-18T07:00:22;101411.50;;;5.24;72.56
77321;BME280;66382;52.252;8.780;2023-11-18T07:02:48;101415.94;;;5.24;72.09
77321;BME280;66382;52.252;8.780;2023-11-18T07:05:13;101414.41;;;5.21;72.70
77321;BME280;66382;52.252;8.780;2023-11-18T07:07:39;101403.91;;;5.20;72.24
77321;BME280;66382;52.252;8.780;2023-11-18T07:10:05;101399.00;;;5.15;72.34
77321;BME280;66382;52.252;8.780;2023-11-18T07:12:32;101412.00;;;5.18;72.11
77321;BME280;66382;52.252;8.780;2023-11-18T07:14:57;101417.00;;;5.11;72.21
77321;BME280;66382;52.252;8.780;2023-11-18T07:17:24;101420.63;;;5.10;72.46
77321;BME280;66382;52.252;8.780;2023-11-18T07:19:49;101420.75;;;5.09;72.51
77321;BME280;66382;52.252;8.780;2023-11-18T07:22:15;101418.09;;;5.09;72.00
77321;BME280;66382;52.252;8.780;2023-11-18T07:24:40;101414.72;;;5.07;71.76
77321;BME280;66382;52.252;8.780;2023-11-18T07:27:06;101421.28;;;5.03;72.23
77321;BME280;66382;52.252;8.780;2023-11-18T07:29:31;101423.13;;;5.02;72.28
77321;BME280;66382;52.252;8.780;2023-11-18T07:31:57;101413.00;;;4.96;72.00
77321;BME280;66382;52.252;8.780;2023-11-18T07:34:23;101420.00;;;4.97;72.49
77321;BME280;66382;52.252;8.780;2023-11-18T07:36:49;101417.47;;;4.95;72.57
77321;BME280;66382;52.252;8.780;2023-11-18T07:39:14;101431.47;;;4.98;72.17
77321;BME280;66382;52.252;8.780;2023-11-18T07:41:40;101429.66;;;4.98;72.06
77321;BME280;66382;52.252;8.780;2023-11-18T07:44:05;101428.81;;;4.98;72.43
77321;BME280;66382;52.252;8.780;2023-11-18T07:46:31;101415.38;;;4.99;72.19
77321;BME280;66382;52.252;8.780;2023-11-18T07:48:56;101414.81;;;4.95;72.10
77321;BME280;66382;52.252;8.780;2023-11-18T07:51:23;101415.66;;;4.96;72.36
77321;BME280;66382;52.252;8.780;2023-11-18T07:53:49;101424.34;;;4.98;72.64
77321;BME280;66382;52.252;8.780;2023-11-18T07:56:14;101413.97;;;4.95;72.72
77321;BME280;66382;52.252;8.780;2023-11-18T07:58:41;101417.19;;;4.99;72.61
77321;BME280;66382;52.252;8.780;2023-11-18T08:01:07;101420.31;;;5.04;72.83
77321;BME280;66382;52.252;8.780;2023-11-18T08:03:32;101429.13;;;5.04;72.57
77321;BME280;66382;52.252;8.780;2023-11-18T08:05:58;101423.34;;;4.99;72.67
77321;BME280;66382;52.252;8.780;2023-11-18T08:08:25;101418.91;;;5.00;72.85
77321;BME280;66382;52.252;8.780;2023-11-18T08:10:50;101423.81;;;5.04;72.72
77321;BME280;66382;52.252;8.780;2023-11-18T08:13:16;101409.03;;;5.11;72.78
77321;BME280;66382;52.252;8.780;2023-11-18T08:15:42;101399.81;;;5.15;72.57
77321;BME280;66382;52.252;8.780;2023-11-18T08:18:08;101405.13;;;5.15;72.59
77321;BME280;66382;52.252;8.780;2023-11-18T08:20:34;101408.38;;;5.19;72.69
77321;BME280;66382;52.252;8.780;2023-11-18T08:22:59;101396.91;;;5.18;72.44
77321;BME280;66382;52.252;8.780;2023-11-18T08:25:26;101396.19;;;5.16;72.48
77321;BME280;66382;52.252;8.780;2023-11-18T08:27:51;101386.41;;;5.17;72.55
77321;BME280;66382;52.252;8.780;2023-11-18T08:30:17;101387.09;;;5.19;72.61
77321;BME280;66382;52.252;8.780;2023-11-18T08:32:42;101402.94;;;5.21;73.08
77321;BME280;66382;52.252;8.780;2023-11-18T08:35:08;101400.28;;;5.21;72.83
77321;BME280;66382;52.252;8.780;2023-11-18T08:37:34;101397.63;;;5.21;72.77
77321;BME280;66382;52.252;8.780;2023-11-18T08:39:59;101389.25;;;5.25;72.62
77321;BME280;66382;52.252;8.780;2023-11-18T08:42:26;101384.75;;;5.26;72.41
77321;BME280;66382;52.252;8.780;2023-11-18T08:44:51;101386.19;;;5.30;73.01
77321;BME280;66382;52.252;8.780;2023-11-18T08:47:17;101384.69;;;5.37;72.65
77321;BME280;66382;52.252;8.780;2023-11-18T08:49:42;101387.06;;;5.40;72.69
77321;BME280;66382;52.252;8.780;2023-11-18T08:52:08;101383.31;;;5.43;72.74
77321;BME280;66382;52.252;8.780;2023-11-18T08:54:33;101386.53;;;5.46;72.70
77321;BME280;66382;52.252;8.780;2023-11-18T08:56:59;101384.47;;;5.50;72.61
77321;BME280;66382;52.252;8.780;2023-11-18T08:59:26;101376.22;;;5.53;72.68
77321;BME280;66382;52.252;8.780;2023-11-18T09:01:51;101381.53;;;5.53;72.55
77321;BME280;66382;52.252;8.780;2023-11-18T09:04:16;101375.94;;;5.56;72.29
77321;BME280;66382;52.252;8.780;2023-11-18T09:06:42;101376.53;;;5.59;72.96
77321;BME280;66382;52.252;8.780;2023-11-18T09:09:07;101371.38;;;5.68;72.97
77321;BME280;66382;52.252;8.780;2023-11-18T09:11:33;101383.88;;;5.77;72.94
77321;BME280;66382;52.252;8.780;2023-11-18T09:13:58;101381.50;;;5.84;72.66
77321;BME280;66382;52.252;8.780;2023-11-18T09:16:26;101386.69;;;5.85;72.58
77321;BME280;66382;52.252;8.780;2023-11-18T09:18:51;101379.75;;;5.94;72.58
77321;BME280;66382;52.252;8.780;2023-11-18T09:21:17;101381.00;;;5.99;72.17
77321;BME280;66382;52.252;8.780;2023-11-18T09:23:43;101381.00;;;5.99;72.23
77321;BME280;66382;52.252;8.780;2023-11-18T09:26:08;101372.91;;;6.01;72.45
77321;BME280;66382;52.252;8.780;2023-11-18T09:28:34;101361.81;;;6.06;72.37
77321;BME280;66382;52.252;8.780;2023-11-18T09:31:02;101368.25;;;6.13;72.19
77321;BME280;66382;52.252;8.780;2023-11-18T09:33:31;101352.16;;;6.14;72.00
77321;BME280;66382;52.252;8.780;2023-11-18T09:35:58;101349.50;;;6.24;72.20
77321;BME280;66382;52.252;8.780;2023-11-18T09:38:23;101350.78;;;6.30;71.60
77321;BME280;66382;52.252;8.780;2023-11-18T09:40:51;101354.25;;;6.30;71.49
77321;BME280;66382;52.252;8.780;2023-11-18T09:43:17;101343.19;;;6.25;71.80
77321;BME280;66382;52.252;8.780;2023-11-18T09:45:43;101337.16;;;6.23;71.72
77321;BME280;66382;52.252;8.780;2023-11-18T09:48:09;101335.63;;;6.20;71.65
77321;BME280;66382;52.252;8.780;2023-11-18T09:50:37;101324.84;;;6.22;71.64
77321;BME280;66382;52.252;8.780;2023-11-18T09:53:06;101328.91;;;6.26;71.98
77321;BME280;66382;52.252;8.780;2023-11-18T09:55:38;101324.28;;;6.28;71.33
77321;BME280;66382;52.252;8.780;2023-11-18T09:58:13;101325.97;;;6.29;71.64
77321;BME280;66382;52.252;8.780;2023-11-18T10:00:41;101326.81;;;6.30;71.50
77321;BME280;66382;52.252;8.780;2023-11-18T10:03:07;101323.00;;;6.32;71.10
77321;BME280;66382;52.252;8.780;2023-11-18T10:05:33;101310.13;;;6.28;70.97
77321;BME280;66382;52.252;8.780;2023-11-18T10:08:02;101311.41;;;6.23;71.13
77321;BME280;66382;52.252;8.780;2023-11-18T10:10:28;101300.03;;;6.21;71.52
77321;BME280;66382;52.252;8.780;2023-11-18T10:12:53;101300.59;;;6.25;71.37
77321;BME280;66382;52.252;8.780;2023-11-18T10:15:20;101299.63;;;6.26;71.35
77321;BME280;66382;52.252;8.780;2023-11-18T10:17:46;101303.13;;;6.27;71.51
77321;BME280;66382;52.252;8.780;2023-11-18T10:20:11;101312.66;;;6.29;71.87
77321;BME280;66382;52.252;8.780;2023-11-18T10:22:37;101303.66;;;6.30;70.83
77321;BME280;66382;52.252;8.780;2023-11-18T10:25:04;101292.06;;;6.31;71.47
77321;BME280;66382;52.252;8.780;2023-11-18T10:27:30;101297.09;;;6.34;71.22
77321;BME280;66382;52.252;8.780;2023-11-18T10:29:56;101294.28;;;6.36;71.03
77321;BME280;66382;52.252;8.780;2023-11-18T10:32:22;101288.69;;;6.39;71.19
77321;BME280;66382;52.252;8.780;2023-11-18T10:34:47;101280.53;;;6.40;71.00
77321;BME280;66382;52.252;8.780;2023-11-18T10:37:13;101281.09;;;6.44;70.95
77321;BME280;66382;52.252;8.780;2023-11-18T10:39:39;101273.09;;;6.44;71.19
77321;BME280;66382;52.252;8.780;2023-11-18T10:42:06;101273.66;;;6.47;71.16
77321;BME280;66382;52.252;8.780;2023-11-18T10:44:31;101264.28;;;6.43;71.29
77321;BME280;66382;52.252;8.780;2023-11-18T10:46:58;101267.50;;;6.47;70.88
77321;BME280;66382;52.252;8.780;2023-11-18T10:49:24;101252.91;;;6.51;71.49
77321;BME280;66382;52.252;8.780;2023-11-18T10:51:50;101257.13;;;6.54;70.89
77321;BME280;66382;52.252;8.780;2023-11-18T10:54:16;101238.75;;;6.51;71.65
77321;BME280;66382;52.252;8.780;2023-11-18T10:56:46;101231.00;;;6.57;71.22
77321;BME280;66382;52.252;8.780;2023-11-18T10:59:13;101226.78;;;6.64;71.15
77321;BME280;66382;52.252;8.780;2023-11-18T11:01:38;101221.16;;;6.67;71.08
77321;BME280;66382;52.252;8.780;2023-11-18T11:04:05;101211.06;;;6.71;70.64
77321;BME280;66382;52.252;8.780;2023-11-18T11:06:31;101210.94;;;6.73;71.55
77321;BME280;66382;52.252;8.780;2023-11-18T11:08:57;101227.16;;;6.79;71.23
77321;BME280;66382;52.252;8.780;2023-11-18T11:11:23;101225.59;;;6.86;71.25
77321;BME280;66382;52.252;8.780;2023-11-18T11:13:50;101216.47;;;6.89;71.07
77321;BME280;66382;52.252;8.780;2023-11-18T11:16:23;101212.34;;;6.95;70.39
77321;BME280;66382;52.252;8.780;2023-11-18T11:18:55;101199.91;;;6.95;70.52
77321;BME280;66382;52.252;8.780;2023-11-18T11:21:25;101207.72;;;6.97;70.24
77321;BME280;66382;52.252;8.780;2023-11-18T11:23:54;101203.09;;;6.99;70.04
77321;BME280;66382;52.252;8.780;2023-11-18T11:26:26;101207.44;;;7.00;70.07
77321;BME280;66382;52.252;8.780;2023-11-18T11:29:07;101197.75;;;6.99;69.88
77321;BME280;66382;52.252;8.780;2023-11-18T11:31:40;101193.13;;;7.01;69.45
77321;BME280;66382;52.252;8.780;2023-11-18T11:34:06;101187.78;;;7.01;70.30
77321;BME280;66382;52.252;8.780;2023-11-18T11:36:41;101180.50;;;7.03;69.51
77321;BME280;66382;52.252;8.780;2023-11-18T11:39:08;101177.00;;;7.02;70.21
77321;BME280;66382;52.252;8.780;2023-11-18T11:41:33;101167.28;;;7.01;70.44
77321;BME280;66382;52.252;8.780;2023-11-18T11:43:59;101148.25;;;6.96;70.07
77321;BME280;66382;52.252;8.780;2023-11-18T11:46:25;101151.47;;;7.00;69.52
77321;BME280;66382;52.252;8.780;2023-11-18T11:48:54;101141.78;;;6.99;68.72
77321;BME280;66382;52.252;8.780;2023-11-18T11:51:24;101146.41;;;6.97;69.49
77321;BME280;66382;52.252;8.780;2023-11-18T11:53:54;101147.81;;;7.01;69.53
77321;BME280;66382;52.252;8.780;2023-11-18T11:56:20;101161.25;;;6.99;68.83
77321;BME280;66382;52.252;8.780;2023-11-18T11:58:46;101180.63;;;7.01;69.59
77321;BME280;66382;52.252;8.780;2023-11-18T12:01:24;101171.78;;;7.01;69.29
77321;BME280;66382;52.252;8.780;2023-11-18T12:03:53;101161.25;;;6.99;69.07
77321;BME280;66382;52.252;8.780;2023-11-18T12:06:19;101164.94;;;6.98;69.17
77321;BME280;66382;52.252;8.780;2023-11-18T12:08:46;101160.31;;;7.00;69.87
77321;BME280;66382;52.252;8.780;2023-11-18T12:11:12;101150.59;;;6.99;68.98
77321;BME280;66382;52.252;8.780;2023-11-18T12:13:37;101152.13;;;7.02;69.45
77321;BME280;66382;52.252;8.780;2023-11-18T12:16:03;101147.66;;;7.02;69.98
77321;BME280;66382;52.252;8.780;2023-11-18T12:18:28;101155.50;;;7.04;70.16
77321;BME280;66382;52.252;8.780;2023-11-18T12:20:55;101151.16;;;7.03;70.13
77321;BME280;66382;52.252;8.780;2023-11-18T12:23:21;101145.13;;;7.01;69.40
77321;BME280;66382;52.252;8.780;2023-11-18T12:25:47;101132.81;;;7.00;68.95
77321;BME280;66382;52.252;8.780;2023-11-18T12:28:15;101136.59;;;6.97;69.74
77321;BME280;66382;52.252;8.780;2023-11-18T12:30:45;101118.41;;;6.93;70.12
77321;BME280;66382;52.252;8.780;2023-11-18T12:33:10;101113.28;;;6.99;69.49
77321;BME280;66382;52.252;8.780;2023-11-18T12:35:51;101120.00;;;7.03;69.70
77321;BME280;66382;52.252;8.780;2023-11-18T12:38:52;101122.66;;;7.03;70.75
77321;BME280;66382;52.252;8.780;2023-11-18T12:41:34;101117.47;;;7.02;70.51
77321;BME280;66382;52.252;8.780;2023-11-18T12:44:12;101108.13;;;6.98;69.76
77321;BME280;66382;52.252;8.780;2023-11-18T12:46:50;101111.00;;;7.04;70.76
77321;BME280;66382;52.252;8.780;2023-11-18T12:49:16;101103.31;;;7.01;69.87
77321;BME280;66382;52.252;8.780;2023-11-18T12:51:43;101098.53;;;7.05;70.32
77321;BME280;66382;52.252;8.780;2023-11-18T12:54:10;101085.19;;;7.05;70.46
77321;BME280;66382;52.252;8.780;2023-11-18T12:56:36;101091.69;;;7.02;70.37